General Juan N Alvarez International Airport
MMAA : now visible

Aeroporto :











RITROVATECI SU...

 
LOGIN :

Iscrizione | Disclaimer

   EN    FR    IT 

 









Sommario :    VFR   VFR Marginale   IFR   IFR Intensivo   IFR Molto Intensivo
Visibilità : 
Base nubi : 
>= 8 km
>= 3000ft
5 / 8 km
1000 / 3000 ft
1500m / 5 km
500 / 1000 ft
800 / 1500m
200 / 500 ft
< 800m
< 200 ft
Simboli :   Temporali  Nebbia  Neve Forte  Precipitazioni Forti  Vento > 20 kt






- Altitudine del aeroporto : 16 ft
- Codice IATA : ACA


MMAA - General Juan N Alvarez International

ULTIMO METAR :
  • 271947Z 25008KT 8SM SKC 29/22 A2992 RMK HZY CU E

METARs OBSOLETI :
  • 271847Z 27009KT 8SM SKC 29/22 A2994 RMK HZY DSNT CU S
  • 271752Z 26006KT 8SM SKC 30/21 A2997 RMK SLP145 57008 964 HZY DSNT CU S

TAF TAF MMAA
Valido dal 27 a 18 ore il 29 a 00 ore UTC


271623Z 2718/2824 26010KT P6SM SCT030 TX30/2721Z TN23/2812Z
FM280300 00000KT P6SM OVC030
TEMPO 2812/2816 BKN015
FM281700 23010KT P6SM SCT030 SCT100



MetMap, La meteo Aeronautica in un colpo d'occhio ! - Copyright ORBIFLY Dicembre 2007 - Disclaimer

ORBIFLY MET'MAP TEAM :

Programmazione e sviluppo : Alexandra Zaïnal
Concezione : Baudouin d'Aumeries
Aiuto per la programmazione : Marc-Olivier Méhu
Supporto tecnico e logistico : Manuel Goepfert
Aiuto per la traduzione : Arnaldo La Scala

Contatto : metmap@orbifly.com




FONTI E CREDITI :

   NOAA       Earth
Advisory